Архив погоды в Кумене

Метеограмма Кумены
Вторник, 14 Августа
Время местн. Темп Ветер Видим Явления Облачность нижн/средн/верх Атм. давл. Влжн Точка росы ВНГО R Сост. почвы Tg s
Напр Скр Прв ур.ст ур.м изм
15:00 +20.8° З 4 6 20 км - переменная облачность 742 758 +0.3 49% +9.7° 1.5 км - - - -
12:00 +20.5° З,С-З 4 8 20 км - облачно с прояснениями 742 757 +0.7 55% +11.1° 1.5 км - - - -
09:00 +18° З 2 5 20 км - переменная облачность 741 757 +0.5 65% +11.4° 1.5 км - - - -
06:00 +12.7° Ю,Ю-З 1 2 20 км - облачно с прояснениями 741 757 +1 76% +8.5° более 2.5 км - Сухая (без трещин) - -
03:00 +14.5° Ю 1 2 20 км - переменная облачность 740 756 +0.1 67% +8.5° - - - - -
00:00 +16.2° Ю-З 2 3 20 км - переменная облачность 740 755 +0.3 56% +7.4° - - - - -
Понедельник, 13 Августа
Время местн. Темп Ветер Видим Явления Облачность нижн/средн/верх Атм. давл. Влжн Точка росы ВНГО R Сост. почвы Tg s
Напр Скр Прв ур.ст ур.м изм
21:00 +17.9° Ю-З 2 4 20 км - переменная облачность 740 755 +0.2 52% +8° 1 км - - - -
18:00 +22.9° З 3 8 20 км - переменная облачность 739 754 -0.5 42% +9.4° 1.5 км - - - -
15:00 +25° З 3 7 20 км - облачно с прояснениями 740 755 0 47% +12.9° 1 км - - - -
12:00 +25.7° З,Ю-З 5 10 20 км - облачно 740 755 -0.4 50% +14.5° 1.5 км - - - -
09:00 +21.1° Ю,Ю-З 2 4 20 км - преимущественно облачно 740 755 -0.6 58% +12.4° более 2.5 км - - - -
06:00 +16.3° Ю 2 4 29 км - облачно с прояснениями 741 756 -0.7 83% +13.4° более 2.5 км - Сухая (без трещин) - -
03:00 +15.7° Ю 2 3 10 км - облачно с прояснениями 741 757 -0.9 79% +12.1° - - - - -
00:00 +16.9° Ю 2 3 10 км - ясно 742 758 -0.8 76% +12.7° более 2.5 км - - - -
Воскресенье, 12 Августа
Время местн. Темп Ветер Видим Явления Облачность нижн/средн/верх Атм. давл. Влжн Точка росы ВНГО R Сост. почвы Tg s
Напр Скр Прв ур.ст ур.м изм
21:00 +20.2° Ю 2 3 10 км - ясно 743 759 -0.3 67% +13.8° более 2.5 км - - - -
18:00 +25.5° З,Ю-З 2 4 20 км - ясно 743 759 -0.8 47% +13.4° более 2.5 км - - - -
15:00 +26.1° З 3 7 20 км - переменная облачность 744 759 -0.6 45% +13.1° 1.5 км - - - -
12:00 +24.8° З 4 7 20 км - облачно с прояснениями 745 760 -0.2 48% +13.1° 1.5 км - - - -
09:00 +22.5° З 2 4 20 км - ясно 745 760 -0.5 64% +15.3° более 2.5 км - - - -
06:00 +17.3° штиль 0 0 20 км - ясно 745 761 +0.1 83% +14.3° более 2.5 км - Влажная (без луж) - -
03:00 +16.1° Ю-З 1 2 20 км - ясно 745 761 0 84% +13.4° более 2.5 км - - - -
00:00 +19° З,С-З 1 2 20 км - ясно 745 761 0 75% +14.5° более 2.5 км - - - -
Суббота, 11 Августа
Время местн. Темп Ветер Видим Явления Облачность нижн/средн/верх Атм. давл. Влжн Точка росы ВНГО R Сост. почвы Tg s
Напр Скр Прв ур.ст ур.м изм
21:00 +20.8° Ю-З 1 2 20 км небо без изменений {гроза, ливневые осадки} переменная облачность 745 761 0 74% +15.9° - - - - -
18:00 +25.2° З 2 4 23 км небо без изменений {гроза, ливневые осадки} переменная облачность 745 760 -0.7 69% +19.1° 1 км - - - -
15:00 +26.2° З,С-З 3 7 28 км - облачно с прояснениями 746 761 -0.6 53% +15.8° 1 км - - - -
12:00 +26.1° З,С-З 4 8 20 км - переменная облачность 747 762 -0.5 53% +15.9° более 2.5 км - - - -